Maurice, Louisiana
Current Conditions -  °F | °C
As of 11:55 PM on Saturday 22 Nov 2014 (Local Time) from KIYA Reporting Station
Overcast Overcast  
Wind Chill: 65°   Ceiling: 1100
Heat Index: 65°   Visibility: 10mi
Dew Point: 64°   Wind: 6mph
Humidity: 94%   Direction: 80°E
Pressure: 29.83"   Gusts: NA
Location:  30.11°N, 92.12°W
Report Text: KIYA 230555Z AUTO 08005KT 10SM OVC011 19/18 A2983 RMK AO2 T01850176 10193 20182
Loading
Personal Weather Stations






























Interactive Weather Map New forecast layout! Learn more

10-Day Weather Forecast

Advertisements
Track Severe Weather on mobile